createdAt,value
2023-01-01T00:01:49.690Z,12.20
2023-01-01T00:04:21.851Z,12.07
2023-01-01T00:06:52.045Z,10.43
2023-01-01T00:09:39.698Z,11.63
2023-01-01T00:12:08.656Z,12.18
2023-01-01T00:14:43.870Z,10.77
2023-01-01T00:17:18.118Z,11.23
2023-01-01T00:19:47.827Z,10.93
2023-01-01T00:22:52.921Z,12.02
2023-01-01T00:25:09.548Z,10.98
2023-01-01T00:27:39.918Z,11.57
2023-01-01T00:30:13.739Z,12.40
2023-01-01T00:32:55.944Z,11.67
2023-01-01T00:35:25.846Z,11.07
2023-01-01T00:37:55.206Z,11.55
2023-01-01T00:40:24.259Z,11.85
2023-01-01T00:42:53.253Z,10.52
2023-01-01T00:45:23.217Z,10.38
2023-01-01T00:47:54.455Z,10.18
2023-01-01T00:50:24.137Z,10.93
2023-01-01T00:52:52.647Z,10.85
2023-01-01T00:55:21.450Z,10.25
2023-01-01T00:57:50.118Z,9.98
2023-01-01T01:00:19.578Z,9.52
2023-01-01T01:02:48.263Z,8.75
2023-01-01T01:05:18.907Z,8.95
2023-01-01T01:07:47.190Z,9.57
2023-01-01T01:10:15.980Z,9.45
2023-01-01T01:12:44.291Z,10.18
2023-01-01T01:15:13.219Z,10.27
2023-01-01T01:17:41.728Z,9.93
2023-01-01T01:20:11.576Z,10.40
2023-01-01T01:22:41.734Z,11.38
2023-01-01T01:25:11.452Z,10.93
2023-01-01T01:27:39.814Z,10.85
2023-01-01T01:30:09.949Z,11.10
2023-01-01T01:32:38.251Z,11.25
2023-01-01T01:35:07.794Z,11.98
2023-01-01T01:37:36.491Z,11.27
2023-01-01T01:40:08.180Z,11.73
2023-01-01T01:42:37.079Z,11.45
2023-01-01T01:45:08.938Z,10.75
2023-01-01T01:47:39.045Z,11.18
2023-01-01T01:50:11.763Z,10.45
2023-01-01T01:52:46.251Z,11.15
2023-01-01T01:55:16.708Z,10.80
2023-01-01T01:57:45.520Z,10.95
2023-01-01T02:00:15.688Z,11.45
2023-01-01T02:02:50.140Z,10.43
2023-01-01T02:05:20.585Z,10.52
2023-01-01T02:07:49.162Z,9.95
2023-01-01T02:10:21.358Z,10.45
2023-01-01T02:12:50.091Z,11.23
2023-01-01T02:15:19.111Z,9.43
2023-01-01T02:17:55.927Z,10.70
2023-01-01T02:20:32.510Z,10.32
2023-01-01T02:23:44.832Z,11.25
2023-01-01T02:26:42.708Z,9.68
2023-01-01T02:29:21.668Z,10.52
2023-01-01T02:31:53.945Z,10.05
2023-01-01T02:34:25.157Z,9.75
2023-01-01T02:36:56.308Z,9.35
2023-01-01T02:39:27.160Z,9.75
2023-01-01T02:41:57.844Z,9.20
2023-01-01T02:44:28.477Z,9.40
2023-01-01T02:46:57.137Z,10.50
2023-01-01T02:49:26.410Z,10.95
2023-01-01T02:52:03.284Z,10.65
2023-01-01T02:54:35.371Z,9.95
2023-01-01T02:57:09.258Z,9.82
2023-01-01T03:00:06.673Z,9.65
2023-01-01T03:02:46.794Z,9.63
2023-01-01T03:05:21.414Z,9.32
2023-01-01T03:08:00.850Z,9.82
2023-01-01T03:10:36.189Z,9.85
2023-01-01T03:13:10.828Z,9.63
2023-01-01T03:15:45.145Z,9.32
2023-01-01T03:18:18.354Z,9.48
2023-01-01T03:20:49.773Z,9.43
2023-01-01T03:23:22.995Z,9.32
2023-01-01T03:25:53.372Z,8.90
2023-01-01T03:28:24.922Z,8.77
2023-01-01T03:30:55.122Z,8.85
2023-01-01T03:33:28.409Z,9.02
2023-01-01T03:36:00.889Z,9.85
2023-01-01T03:38:32.584Z,10.00
2023-01-01T03:41:04.349Z,9.77
2023-01-01T03:43:39.508Z,10.18
2023-01-01T03:46:10.815Z,9.05
2023-01-01T03:49:00.243Z,9.20
2023-01-01T03:51:41.281Z,8.98
2023-01-01T03:54:15.278Z,8.38
2023-01-01T03:56:47.031Z,8.98
2023-01-01T03:59:19.210Z,8.77
2023-01-01T04:01:54.313Z,8.70
2023-01-01T04:04:23.268Z,8.88
2023-01-01T04:06:52.020Z,8.40
2023-01-01T04:09:24.690Z,7.97
2023-01-01T04:12:05.676Z,8.35
2023-01-01T04:14:38.499Z,8.40
2023-01-01T04:17:09.906Z,7.60
2023-01-01T04:19:38.948Z,7.55
2023-01-01T04:22:10.504Z,8.20
2023-01-01T04:24:39.701Z,9.30
2023-01-01T04:27:08.140Z,8.90
2023-01-01T04:29:38.610Z,9.45
2023-01-01T04:32:08.574Z,8.52
2023-01-01T04:34:37.099Z,9.80
2023-01-01T04:37:11.291Z,9.73
2023-01-01T04:39:41.979Z,9.00
2023-01-01T04:42:10.339Z,9.60
2023-01-01T04:44:39.066Z,8.00
2023-01-01T04:47:08.880Z,7.68
2023-01-01T04:49:37.905Z,7.45
2023-01-01T04:52:06.445Z,7.35
2023-01-01T04:54:35.091Z,7.28
2023-01-01T04:57:03.540Z,7.35
2023-01-01T04:59:32.657Z,7.55
2023-01-01T05:02:01.318Z,7.57
2023-01-01T05:04:31.449Z,7.20
2023-01-01T05:07:00.046Z,7.53
2023-01-01T05:09:28.916Z,6.78
2023-01-01T05:11:57.123Z,6.72
2023-01-01T05:14:25.942Z,6.38
2023-01-01T05:16:54.216Z,5.85
2023-01-01T05:19:23.158Z,5.65
2023-01-01T05:21:54.376Z,6.03
2023-01-01T05:24:23.314Z,5.85
2023-01-01T05:26:51.584Z,5.80
2023-01-01T05:29:20.291Z,5.45
2023-01-01T05:31:48.745Z,5.68
2023-01-01T05:34:17.315Z,6.65
2023-01-01T05:36:46.659Z,6.10
2023-01-01T05:39:16.564Z,6.63
2023-01-01T05:41:44.965Z,6.22
2023-01-01T05:44:16.731Z,6.28
2023-01-01T05:49:14.552Z,5.78
2023-01-01T05:51:43.156Z,6.13
2023-01-01T05:56:40.777Z,5.85
2023-01-01T05:59:11.332Z,6.07
2023-01-01T06:01:45.369Z,6.00
2023-01-01T06:04:14.765Z,5.68
2023-01-01T06:06:43.314Z,5.10
2023-01-01T06:09:12.779Z,5.57
2023-01-01T06:11:43.007Z,5.70
2023-01-01T06:14:11.695Z,5.20
2023-01-01T06:16:39.916Z,4.63
2023-01-01T06:19:09.006Z,4.82
2023-01-01T06:21:37.393Z,4.47
2023-01-01T06:24:07.205Z,4.72
2023-01-01T06:26:37.478Z,4.28
2023-01-01T06:29:07.441Z,4.03
2023-01-01T06:31:40.623Z,4.28
2023-01-01T06:34:10.123Z,4.50
2023-01-01T06:36:38.528Z,4.53
2023-01-01T06:39:08.455Z,4.75
2023-01-01T06:41:37.142Z,4.15
2023-01-01T06:44:07.507Z,4.30
2023-01-01T06:46:37.413Z,4.63
2023-01-01T06:49:07.677Z,4.25
2023-01-01T06:51:38.817Z,4.63
2023-01-01T06:54:08.001Z,4.70
2023-01-01T06:56:36.537Z,4.90
2023-01-01T06:59:05.591Z,5.18
2023-01-01T07:01:37.614Z,6.78
2023-01-01T07:04:08.964Z,4.88
2023-01-01T07:06:37.349Z,4.45
2023-01-01T07:09:07.775Z,4.53
2023-01-01T07:11:36.647Z,5.00
2023-01-01T07:14:06.107Z,5.30
2023-01-01T07:16:36.237Z,5.32
2023-01-01T07:19:05.353Z,8.43
2023-01-01T07:21:35.822Z,6.93
2023-01-01T07:24:06.525Z,4.88
2023-01-01T07:26:35.576Z,5.15
2023-01-01T07:29:07.739Z,4.93
2023-01-01T07:31:39.953Z,5.32
2023-01-01T07:34:11.258Z,4.30
2023-01-01T07:36:39.681Z,4.63
2023-01-01T07:39:08.472Z,4.43
2023-01-01T07:41:37.580Z,4.07
2023-01-01T07:44:06.675Z,4.28
2023-01-01T07:46:37.951Z,4.60
2023-01-01T07:49:07.316Z,4.55
2023-01-01T07:51:36.069Z,4.85
2023-01-01T07:54:07.386Z,4.80
2023-01-01T07:56:36.529Z,4.60
2023-01-01T07:59:05.757Z,5.07
2023-01-01T08:01:38.516Z,4.38
2023-01-01T08:04:07.211Z,4.90
2023-01-01T08:06:35.648Z,5.00
2023-01-01T08:09:04.310Z,4.88
2023-01-01T08:11:32.723Z,5.43
2023-01-01T08:14:01.551Z,5.35
2023-01-01T08:16:29.961Z,4.95
2023-01-01T08:19:00.003Z,5.35
2023-01-01T08:21:28.498Z,4.75
2023-01-01T08:23:57.208Z,5.30
2023-01-01T08:26:30.840Z,5.18
2023-01-01T08:28:59.998Z,5.60
2023-01-01T08:31:28.902Z,5.40
2023-01-01T08:33:59.292Z,4.97
2023-01-01T08:36:27.901Z,5.63
2023-01-01T08:38:57.111Z,4.50
2023-01-01T08:41:25.773Z,4.80
2023-01-01T08:43:54.856Z,4.57
2023-01-01T08:46:23.215Z,4.72
2023-01-01T08:48:52.309Z,4.38
2023-01-01T08:51:22.033Z,4.80
2023-01-01T08:54:00.213Z,4.88
2023-01-01T08:56:28.569Z,4.70
2023-01-01T08:59:03.594Z,5.20
2023-01-01T09:01:32.783Z,5.57
2023-01-01T09:04:03.944Z,5.75
2023-01-01T09:06:33.812Z,4.72
2023-01-01T09:09:02.696Z,4.72
2023-01-01T09:11:31.124Z,4.65
2023-01-01T09:14:00.758Z,4.90
2023-01-01T09:16:29.417Z,4.63
2023-01-01T09:18:58.264Z,4.40
2023-01-01T09:21:26.837Z,4.53
2023-01-01T09:23:57.277Z,4.10
2023-01-01T09:26:25.991Z,4.07
2023-01-01T09:28:55.003Z,4.20
2023-01-01T09:31:23.791Z,4.32
2023-01-01T09:33:52.785Z,4.93
2023-01-01T09:36:29.556Z,4.13
2023-01-01T09:39:00.708Z,4.13
2023-01-01T09:41:37.648Z,3.85
2023-01-01T09:44:18.637Z,3.60
2023-01-01T09:52:48.340Z,4.57
2023-01-01T09:55:34.619Z,5.97
2023-01-01T10:01:11.492Z,6.63
2023-01-01T10:03:43.063Z,4.85
2023-01-01T10:06:20.926Z,4.78
2023-01-01T10:09:02.781Z,9.65
2023-01-01T10:11:40.436Z,9.60
2023-01-01T10:14:17.967Z,12.68
2023-01-01T10:16:49.341Z,8.95
2023-01-01T10:19:26.628Z,8.00
2023-01-01T10:21:59.848Z,3.92
2023-01-01T10:24:37.742Z,3.88
2023-01-01T10:27:08.525Z,3.70
2023-01-01T10:29:42.095Z,3.85
2023-01-01T10:32:20.719Z,4.32
2023-01-01T10:34:49.944Z,4.22
2023-01-01T10:37:18.939Z,4.85
2023-01-01T10:39:48.302Z,8.43
2023-01-01T10:42:18.505Z,5.25
2023-01-01T10:44:48.436Z,4.60
2023-01-01T10:47:25.768Z,4.32
2023-01-01T10:49:59.332Z,5.60
2023-01-01T10:52:31.878Z,3.67
2023-01-01T10:55:01.093Z,4.15
2023-01-01T10:57:37.898Z,3.70
2023-01-01T11:00:28.570Z,3.63
2023-01-01T11:03:20.229Z,3.83
2023-01-01T11:06:06.327Z,3.40
2023-01-01T11:08:36.702Z,3.50
2023-01-01T11:11:05.441Z,3.80
2023-01-01T11:13:35.989Z,3.72
2023-01-01T11:16:11.928Z,3.50
2023-01-01T11:18:40.811Z,3.17
2023-01-01T11:21:09.632Z,3.35
2023-01-01T11:23:39.905Z,3.00
2023-01-01T11:26:22.250Z,3.60
2023-01-01T11:29:02.839Z,3.40
2023-01-01T11:31:35.652Z,3.80
2023-01-01T11:34:04.987Z,3.47
2023-01-01T11:36:35.073Z,3.22
2023-01-01T11:39:21.648Z,3.95
2023-01-01T11:41:51.680Z,3.85
2023-01-01T11:44:33.258Z,3.38
2023-01-01T11:47:01.925Z,3.47
2023-01-01T11:49:31.747Z,3.47
2023-01-01T11:52:00.778Z,3.58
2023-01-01T11:54:36.239Z,3.55
2023-01-01T11:57:12.284Z,3.40
2023-01-01T11:59:47.597Z,3.15
2023-01-01T12:02:19.090Z,3.60
2023-01-01T12:04:51.589Z,4.45
2023-01-01T12:07:23.536Z,4.35
2023-01-01T12:09:56.350Z,3.72
2023-01-01T12:12:29.504Z,3.40
2023-01-01T12:15:03.826Z,2.75
2023-01-01T12:17:35.385Z,3.25
2023-01-01T12:20:07.148Z,2.90
2023-01-01T12:22:35.489Z,3.90
2023-01-01T12:25:05.441Z,3.60
2023-01-01T12:27:48.875Z,3.22
2023-01-01T12:30:22.797Z,3.60
2023-01-01T12:33:08.365Z,3.15
2023-01-01T12:35:48.096Z,3.70
2023-01-01T12:38:26.667Z,4.35
2023-01-01T12:41:01.675Z,3.65
2023-01-01T12:43:39.126Z,5.25
2023-01-01T12:46:33.724Z,13.48
2023-01-01T12:49:14.879Z,20.13
2023-01-01T12:51:51.863Z,7.72
2023-01-01T12:54:47.855Z,5.13
2023-01-01T12:57:22.781Z,5.53
2023-01-01T12:59:53.042Z,4.30
2023-01-01T13:02:25.492Z,5.30
2023-01-01T13:04:56.520Z,4.78
2023-01-01T13:07:30.075Z,4.85
2023-01-01T13:10:00.259Z,4.72
2023-01-01T13:12:29.455Z,7.22
2023-01-01T13:14:58.545Z,8.52
2023-01-01T13:17:30.833Z,12.00
2023-01-01T13:20:00.720Z,6.88
2023-01-01T13:22:43.794Z,6.23
2023-01-01T13:25:24.068Z,7.65
2023-01-01T13:28:16.602Z,8.15
2023-01-01T13:30:57.163Z,6.18
2023-01-01T13:33:37.144Z,6.22
2023-01-01T13:36:35.714Z,5.65
2023-01-01T13:39:08.126Z,6.03
2023-01-01T13:41:53.641Z,5.93
2023-01-01T13:44:23.802Z,5.20
2023-01-01T13:47:14.282Z,4.40
2023-01-01T13:50:04.936Z,5.70
2023-01-01T13:52:45.496Z,5.88
2023-01-01T13:55:41.151Z,6.30
2023-01-01T13:58:26.020Z,8.32
2023-01-01T14:01:09.149Z,6.70
2023-01-01T14:03:42.023Z,5.78
2023-01-01T14:06:14.265Z,7.90
2023-01-01T14:08:46.467Z,11.23
2023-01-01T14:11:23.157Z,10.52
2023-01-01T14:13:51.938Z,13.35
2023-01-01T14:16:21.254Z,10.98
2023-01-01T14:19:00.864Z,11.13
2023-01-01T14:21:34.327Z,7.28
2023-01-01T14:24:05.456Z,7.75
2023-01-01T14:29:04.636Z,5.88
2023-01-01T14:31:36.459Z,5.88
2023-01-01T14:34:15.655Z,6.38
2023-01-01T14:36:53.444Z,6.82
2023-01-01T14:39:28.144Z,5.88
2023-01-01T14:41:59.619Z,5.82
2023-01-01T14:44:36.362Z,5.60
2023-01-01T14:47:06.680Z,5.20
2023-01-01T14:49:37.397Z,5.88
2023-01-01T14:52:12.118Z,6.53
2023-01-01T14:54:44.392Z,7.68
2023-01-01T14:57:18.536Z,6.50
2023-01-01T14:59:48.201Z,6.93
2023-01-01T15:02:19.208Z,6.38
2023-01-01T15:04:48.203Z,7.10
2023-01-01T15:07:23.634Z,6.20
2023-01-01T15:09:52.770Z,6.57
2023-01-01T15:12:23.064Z,7.80
2023-01-01T15:14:57.155Z,7.18
2023-01-01T15:17:27.406Z,13.07
2023-01-01T15:20:09.529Z,8.18
2023-01-01T15:22:40.753Z,8.73
2023-01-01T15:25:14.978Z,8.47
2023-01-01T15:27:44.913Z,8.35
2023-01-01T15:30:30.520Z,8.55
2023-01-01T15:33:11.451Z,9.98
2023-01-01T15:38:35.010Z,15.07
2023-01-01T15:41:27.733Z,9.70
2023-01-01T15:44:09.118Z,10.68
2023-01-01T15:46:40.491Z,10.50
2023-01-01T15:49:25.152Z,13.68
2023-01-01T15:51:56.809Z,9.35
2023-01-01T15:54:31.810Z,8.10
2023-01-01T15:57:01.484Z,7.93
2023-01-01T15:59:46.549Z,6.18
2023-01-01T16:04:53.558Z,9.25
2023-01-01T16:07:28.287Z,11.70
2023-01-01T16:10:13.052Z,7.97
2023-01-01T16:13:00.718Z,8.93
2023-01-01T16:15:32.540Z,7.90
2023-01-01T16:21:07.378Z,6.32
2023-01-01T16:23:47.502Z,6.60
2023-01-01T16:26:17.560Z,6.97
2023-01-01T16:28:47.871Z,7.10
2023-01-01T16:31:21.393Z,6.55
2023-01-01T16:33:55.887Z,7.65
2023-01-01T16:36:27.502Z,7.15
2023-01-01T16:39:00.348Z,7.25
2023-01-01T16:41:30.655Z,8.02
2023-01-01T16:43:59.827Z,7.00
2023-01-01T16:46:36.195Z,9.45
2023-01-01T16:49:07.606Z,12.23
2023-01-01T16:51:40.630Z,9.18
2023-01-01T16:54:12.684Z,10.57
2023-01-01T16:56:42.738Z,10.30
2023-01-01T16:59:11.684Z,11.87
2023-01-01T17:01:40.349Z,12.82
2023-01-01T17:04:09.260Z,11.85
2023-01-01T17:06:39.736Z,11.57
2023-01-01T17:09:10.145Z,13.75
2023-01-01T17:11:39.602Z,13.48
2023-01-01T17:14:11.334Z,14.40
2023-01-01T17:16:40.513Z,14.38
2023-01-01T17:19:14.954Z,14.93
2023-01-01T17:21:47.245Z,13.95
2023-01-01T17:24:17.097Z,14.75
2023-01-01T17:26:45.721Z,15.23
2023-01-01T17:29:16.202Z,15.00
2023-01-01T17:31:45.136Z,15.60
2023-01-01T17:34:14.914Z,15.10
2023-01-01T17:36:45.371Z,14.13
2023-01-01T17:39:15.226Z,14.32
2023-01-01T17:41:46.417Z,15.77
2023-01-01T17:44:16.888Z,17.95
2023-01-01T17:46:47.081Z,20.88
2023-01-01T17:49:16.228Z,18.47
2023-01-01T17:51:44.983Z,22.58
2023-01-01T17:54:14.459Z,20.58
2023-01-01T17:56:43.586Z,14.45
2023-01-01T17:59:12.854Z,12.98
2023-01-01T18:01:44.583Z,16.40
2023-01-01T18:04:16.441Z,12.30
2023-01-01T18:06:50.851Z,14.32
2023-01-01T18:09:23.865Z,13.20
2023-01-01T18:11:52.990Z,14.15
2023-01-01T18:14:24.686Z,14.70
2023-01-01T18:16:55.120Z,13.65
2023-01-01T18:19:24.660Z,14.73
2023-01-01T18:21:53.426Z,13.40
2023-01-01T18:24:22.473Z,14.48
2023-01-01T18:26:51.319Z,12.45
2023-01-01T18:29:20.714Z,12.82
2023-01-01T18:31:49.316Z,12.45
2023-01-01T18:34:19.893Z,11.60
2023-01-01T18:36:48.553Z,11.38
2023-01-01T18:39:22.121Z,10.32
2023-01-01T18:42:08.385Z,11.55
2023-01-01T18:44:44.802Z,13.48
2023-01-01T18:47:16.430Z,11.77
2023-01-01T18:49:50.356Z,12.80
2023-01-01T18:52:23.966Z,13.30
2023-01-01T18:55:01.377Z,13.77
2023-01-01T18:57:30.314Z,15.38
2023-01-01T19:00:00.241Z,13.90
2023-01-01T19:02:32.566Z,13.77
2023-01-01T19:05:16.728Z,14.88
2023-01-01T19:07:47.362Z,14.70
2023-01-01T19:10:16.872Z,15.75
2023-01-01T19:12:45.703Z,16.10
2023-01-01T19:15:18.243Z,14.27
2023-01-01T19:17:46.999Z,15.50
2023-01-01T19:20:20.871Z,15.80
2023-01-01T19:22:49.415Z,15.93
2023-01-01T19:25:39.720Z,16.02
2023-01-01T19:28:38.583Z,13.95
2023-01-01T19:31:08.615Z,15.10
2023-01-01T19:33:37.090Z,14.73
2023-01-01T19:36:08.214Z,15.48
2023-01-01T19:38:36.677Z,16.00
2023-01-01T19:41:05.812Z,16.40
2023-01-01T19:43:34.324Z,15.93
2023-01-01T19:46:03.526Z,16.75
2023-01-01T19:48:31.972Z,17.38
2023-01-01T19:51:00.845Z,18.98
2023-01-01T19:53:30.888Z,18.38
2023-01-01T19:55:59.911Z,14.83
2023-01-01T19:58:28.579Z,15.88
2023-01-01T20:00:57.436Z,15.07
2023-01-01T20:03:52.922Z,16.25
2023-01-01T20:06:15.503Z,14.40
2023-01-01T20:08:45.463Z,14.43
2023-01-01T20:11:15.647Z,13.90
2023-01-01T20:13:44.246Z,13.30
2023-01-01T20:16:13.225Z,13.43
2023-01-01T20:18:42.096Z,13.88
2023-01-01T20:21:28.356Z,14.00
2023-01-01T20:23:58.175Z,15.98
2023-01-01T20:26:27.236Z,14.73
2023-01-01T20:29:13.267Z,13.88
2023-01-01T20:31:43.060Z,13.23
2023-01-01T20:34:11.999Z,14.18
2023-01-01T20:36:58.433Z,13.85
2023-01-01T20:39:28.448Z,14.45
2023-01-01T20:41:58.372Z,15.15
2023-01-01T20:44:29.872Z,15.57
2023-01-01T20:46:58.841Z,13.40
2023-01-01T20:49:27.321Z,14.73
2023-01-01T20:51:56.144Z,12.98
2023-01-01T20:54:24.817Z,13.65
2023-01-01T20:56:55.062Z,13.48
2023-01-01T20:59:35.264Z,12.63
2023-01-01T21:02:05.424Z,12.38
2023-01-01T21:04:38.981Z,11.57
2023-01-01T21:07:09.535Z,11.35
2023-01-01T21:09:38.353Z,12.52
2023-01-01T21:12:09.492Z,12.55
2023-01-01T21:14:38.559Z,12.20
2023-01-01T21:17:19.604Z,12.05
2023-01-01T21:19:48.565Z,12.63
2023-01-01T21:22:17.480Z,12.35
2023-01-01T21:25:10.661Z,11.38
2023-01-01T21:27:46.758Z,11.23
2023-01-01T21:30:15.668Z,10.63
2023-01-01T21:32:46.260Z,11.50
2023-01-01T21:35:19.936Z,11.50
2023-01-01T21:37:50.189Z,11.05
2023-01-01T21:40:35.798Z,10.88
2023-01-01T21:43:26.018Z,12.15
2023-01-01T21:45:55.833Z,10.98
2023-01-01T21:48:30.366Z,11.80
2023-01-01T21:51:00.626Z,10.02
2023-01-01T21:53:31.340Z,11.10
2023-01-01T21:56:00.361Z,11.80
2023-01-01T21:58:51.742Z,11.30
2023-01-01T22:01:26.081Z,12.13
2023-01-01T22:04:00.451Z,11.43
2023-01-01T22:06:35.289Z,11.00
2023-01-01T22:09:14.370Z,11.40
2023-01-01T22:11:43.582Z,10.52
2023-01-01T22:14:16.880Z,11.63
2023-01-01T22:16:47.360Z,10.38
2023-01-01T22:19:18.147Z,9.27
2023-01-01T22:21:47.151Z,10.90
2023-01-01T22:24:34.317Z,10.60
2023-01-01T22:27:25.212Z,9.90
2023-01-01T22:29:55.858Z,11.65
2023-01-01T22:32:26.608Z,10.05
2023-01-01T22:34:56.875Z,10.82
2023-01-01T22:37:30.555Z,10.90
2023-01-01T22:40:00.349Z,11.27
2023-01-01T22:42:31.967Z,11.80
2023-01-01T22:45:02.366Z,11.20
2023-01-01T22:47:35.815Z,11.52
2023-01-01T22:50:08.208Z,11.48
2023-01-01T22:52:36.438Z,10.82
2023-01-01T22:55:08.333Z,11.45
2023-01-01T22:57:36.704Z,10.63
2023-01-01T23:00:08.587Z,11.00
2023-01-01T23:02:36.895Z,11.43
2023-01-01T23:05:07.221Z,12.10
2023-01-01T23:07:41.713Z,12.98
2023-01-01T23:10:12.332Z,13.27
2023-01-01T23:12:40.863Z,11.30
2023-01-01T23:15:29.318Z,11.27
2023-01-01T23:17:57.784Z,13.00
2023-01-01T23:20:26.786Z,12.43
2023-01-01T23:22:56.735Z,11.48
2023-01-01T23:25:26.015Z,11.83
2023-01-01T23:27:54.681Z,11.85
2023-01-01T23:30:24.881Z,9.80
2023-01-01T23:32:53.250Z,11.77
2023-01-01T23:35:22.060Z,10.60
2023-01-01T23:37:50.582Z,11.10
2023-01-01T23:40:19.424Z,11.75
2023-01-01T23:42:48.206Z,9.57
2023-01-01T23:45:17.898Z,9.07
2023-01-01T23:47:47.599Z,9.23
2023-01-01T23:50:16.134Z,9.40
2023-01-01T23:52:44.536Z,10.23
2023-01-01T23:55:13.117Z,9.90
2023-01-01T23:57:41.543Z,9.38
